Time;durP1;ratioP1;P1;durP2;ratioP2;P2;SDS_P1;SDS_P2;PMS_P1;PMS_P2;Temp;Humidity;BMP_temperature;BMP_pressure;BME280_temperature;BME280_humidity;BME280_pressure;Samples;Min_cycle;Max_cycle;Signal;HPM_P1;HPM_P2
2023/09/27 00:00:57;;;;;;;;;;;;;;;;;;5075528;28;19915;-27
2023/09/27 00:03:23;;;;;;;;;;;;;;;;;;5075329;28;20262;-28
2023/09/27 00:05:49;;;;;;;;;;;;;;;;;;5075033;28;19999;-28
2023/09/27 00:08:15;;;;;;;;;;;;;;;;;;5075207;28;19912;-23
2023/09/27 00:10:41;;;;;;;;;;;;;;;;;;5075446;28;19916;-27
2023/09/27 00:13:07;;;;;;;;;;;;;;;;;;5075225;28;20011;-24
2023/09/27 00:15:33;;;;;;;;;;;;;;;;;;5075393;28;20424;-24
2023/09/27 00:17:59;;;;;;;;;;;;;;;;;;5075072;28;19919;-23
2023/09/27 00:20:25;;;;;;;;;;;;;;;;;;5075324;28;19916;-25
2023/09/27 00:22:51;;;;;;;;;;;;;;;;;;5075234;28;19915;-23
2023/09/27 00:25:16;;;;;;;;;;;;;;;;;;5075257;28;20276;-22
2023/09/27 00:27:43;;;;;;;;;;;;;;;;;;5074996;28;19916;-24
2023/09/27 00:30:09;;;;;;;;;;;;;;;;;;5074902;28;19913;-28
2023/09/27 00:32:34;;;;;;;;;;;;;;;;;;5074762;28;20079;-24
2023/09/27 00:35:01;;;;;;;;;;;;;;;;;;5074813;28;19909;-23
2023/09/27 00:37:27;;;;;;;;;;;;;;;;;;5075157;28;20265;-19
2023/09/27 00:39:52;;;;;;;;;;;;;;;;;;5075008;28;19916;-27
2023/09/27 00:42:18;;;;;;;;;;;;;;;;;;5074741;28;20329;-25
2023/09/27 00:44:44;;;;;;;;;;;;;;;;;;5074766;28;19991;-24
2023/09/27 00:47:10;;;;;;;;;;;;;;;;;;5074623;28;19984;-27
2023/09/27 00:49:36;;;;;;;;;;;;;;;;;;5075026;28;19914;-27
2023/09/27 00:52:02;;;;;;;;;;;;;;;;;;5074671;28;20327;-24
2023/09/27 00:54:28;;;;;;;;;;;;;;;;;;5074660;28;19913;-27
2023/09/27 00:56:54;;;;;;;;;;;;;;;;;;5074970;28;20323;-26
2023/09/27 00:59:20;;;;;;;;;;;;;;;;;;5074681;28;20405;-25
2023/09/27 01:01:46;;;;;;;;;;;;;;;;;;5074558;28;20012;-29
2023/09/27 01:04:12;;;;;;;;;;;;;;;;;;5074611;28;20296;-25
2023/09/27 01:06:38;;;;;;;;;;;;;;;;;;5074399;28;19970;-23
2023/09/27 01:09:04;;;;;;;;;;;;;;;;;;5074835;28;19912;-27
2023/09/27 01:11:30;;;;;;;;;;;;;;;;;;5073563;28;19920;-21
2023/09/27 01:13:56;;;;;;;;;;;;;;;;;;5074293;28;19966;-25
2023/09/27 01:16:22;;;;;;;;;;;;;;;;;;5074498;28;19909;-24
2023/09/27 01:18:48;;;;;;;;;;;;;;;;;;5074734;28;19920;-31
2023/09/27 01:21:19;;;;;;;;;;;;;;;;;;5074424;28;19922;-24
2023/09/27 01:23:45;;;;;;;;;;;;;;;;;;5074365;28;20373;-22
2023/09/27 01:26:10;;;;;;;;;;;;;;;;;;5073398;28;19909;-28
2023/09/27 01:28:36;;;;;;;;;;;;;;;;;;5074367;28;19930;-20
2023/09/27 01:31:02;;;;;;;;;;;;;;;;;;5074358;28;19934;-23
2023/09/27 01:33:28;;;;;;;;;;;;;;;;;;5074211;28;19912;-29
2023/09/27 01:35:56;;;;;;;;;;;;;;;;;;5073351;28;19912;-19
2023/09/27 01:38:22;;;;;;;;;;;;;;;;;;5074319;28;19995;-24
2023/09/27 01:40:48;;;;;;;;;;;;;;;;;;5073282;28;19982;-20
2023/09/27 01:43:14;;;;;;;;;;;;;;;;;;5074168;28;19939;-26
2023/09/27 01:45:40;;;;;;;;;;;;;;;;;;5074765;28;20351;-26
2023/09/27 01:48:05;;;;;;;;;;;;;;;;;;5074196;28;20351;-28
2023/09/27 01:50:32;;;;;;;;;;;;;;;;;;5074109;28;20003;-28
2023/09/27 01:52:58;;;;;;;;;;;;;;;;;;5074009;28;19912;-28
2023/09/27 01:55:24;;;;;;;;;;;;;;;;;;5074387;28;19909;-25
2023/09/27 01:57:50;;;;;;;;;;;;;;;;;;5074056;28;20298;-22
2023/09/27 02:00:16;;;;;;;;;;;;;;;;;;5077498;28;20357;-27
2023/09/27 02:02:42;;;;;;;;;;;;;;;;;;5077464;28;20263;-25
2023/09/27 02:05:08;;;;;;;;;;;;;;;;;;5077321;28;19920;-27
2023/09/27 02:07:34;;;;;;;;;;;;;;;;;;5077505;28;20007;-23
2023/09/27 02:09:59;;;;;;;;;;;;;;;;;;5077669;28;19951;-26
2023/09/27 02:12:25;;;;;;;;;;;;;;;;;;5077562;28;20397;-28
2023/09/27 02:14:51;;;;;;;;;;;;;;;;;;5077347;28;19908;-25
2023/09/27 02:17:17;;;;;;;;;;;;;;;;;;5077316;28;20309;-23
2023/09/27 02:19:43;;;;;;;;;;;;;;;;;;5077309;28;20255;-21
2023/09/27 02:22:09;;;;;;;;;;;;;;;;;;5077098;28;20266;-23
2023/09/27 02:24:36;;;;;;;;;;;;;;;;;;5077199;28;19916;-22
2023/09/27 02:27:02;;;;;;;;;;;;;;;;;;5077116;28;19908;-26
2023/09/27 02:29:28;;;;;;;;;;;;;;;;;;5077050;28;19919;-30
2023/09/27 02:31:54;;;;;;;;;;;;;;;;;;5077008;28;19956;-21
2023/09/27 02:34:20;;;;;;;;;;;;;;;;;;5076946;28;20298;-27
2023/09/27 02:36:46;;;;;;;;;;;;;;;;;;5077260;28;19919;-26
2023/09/27 02:39:12;;;;;;;;;;;;;;;;;;5076945;28;19908;-27
2023/09/27 02:41:39;;;;;;;;;;;;;;;;;;5076937;28;20331;-27
2023/09/27 02:44:05;;;;;;;;;;;;;;;;;;5076784;28;20346;-25
2023/09/27 02:46:32;;;;;;;;;;;;;;;;;;5077096;28;20259;-25
2023/09/27 02:48:58;;;;;;;;;;;;;;;;;;5076763;28;19966;-26
2023/09/27 02:51:24;;;;;;;;;;;;;;;;;;5076760;28;19908;-22
2023/09/27 02:53:50;;;;;;;;;;;;;;;;;;5076549;28;19936;-27
2023/09/27 02:56:15;;;;;;;;;;;;;;;;;;5076617;28;19916;-25
2023/09/27 02:58:42;;;;;;;;;;;;;;;;;;5076578;28;19908;-25
2023/09/27 03:01:08;;;;;;;;;;;;;;;;;;5076480;28;19919;-28
2023/09/27 03:03:34;;;;;;;;;;;;;;;;;;5076611;28;19962;-23
2023/09/27 03:06:00;;;;;;;;;;;;;;;;;;5076295;28;19917;-31
2023/09/27 03:08:26;;;;;;;;;;;;;;;;;;5076837;28;19909;-24
2023/09/27 03:10:52;;;;;;;;;;;;;;;;;;5076020;28;19908;-25
2023/09/27 03:13:18;;;;;;;;;;;;;;;;;;5076402;28;19917;-31
2023/09/27 03:15:44;;;;;;;;;;;;;;;;;;5076227;28;19916;-29
2023/09/27 03:18:10;;;;;;;;;;;;;;;;;;5076101;28;20351;-26
2023/09/27 03:20:36;;;;;;;;;;;;;;;;;;5076349;28;19999;-27
2023/09/27 03:23:02;;;;;;;;;;;;;;;;;;5076079;28;20340;-25
2023/09/27 03:25:28;;;;;;;;;;;;;;;;;;5076241;28;19909;-25
2023/09/27 03:27:54;;;;;;;;;;;;;;;;;;5075958;28;19909;-24
2023/09/27 03:30:20;;;;;;;;;;;;;;;;;;5075879;28;19940;-22
2023/09/27 03:32:46;;;;;;;;;;;;;;;;;;5075741;28;20343;-24
2023/09/27 03:35:12;;;;;;;;;;;;;;;;;;5075985;28;19935;-26
2023/09/27 03:37:39;;;;;;;;;;;;;;;;;;5075980;28;19915;-23
2023/09/27 03:40:08;;;;;;;;;;;;;;;;;;5075571;28;20228;-26
2023/09/27 03:42:34;;;;;;;;;;;;;;;;;;5075752;28;20301;-21
2023/09/27 03:45:00;;;;;;;;;;;;;;;;;;5075625;28;19908;-28
2023/09/27 03:47:26;;;;;;;;;;;;;;;;;;5075775;28;19919;-24
2023/09/27 03:49:52;;;;;;;;;;;;;;;;;;5075572;28;19909;-27
2023/09/27 03:52:18;;;;;;;;;;;;;;;;;;5075349;28;19909;-24
2023/09/27 03:54:44;;;;;;;;;;;;;;;;;;5075167;28;19916;-25
2023/09/27 03:57:10;;;;;;;;;;;;;;;;;;5075369;28;19936;-22
2023/09/27 03:59:36;;;;;;;;;;;;;;;;;;5075477;28;19920;-27
2023/09/27 04:02:02;;;;;;;;;;;;;;;;;;5075113;28;19935;-23
2023/09/27 04:04:28;;;;;;;;;;;;;;;;;;5075005;28;19919;-28
2023/09/27 04:06:54;;;;;;;;;;;;;;;;;;5075201;28;19916;-28
2023/09/27 04:09:20;;;;;;;;;;;;;;;;;;5073993;28;19916;-27
2023/09/27 04:11:46;;;;;;;;;;;;;;;;;;5073819;28;19910;-28
2023/09/27 04:14:12;;;;;;;;;;;;;;;;;;5074979;28;19974;-26
2023/09/27 04:16:38;;;;;;;;;;;;;;;;;;5073820;28;19918;-27
2023/09/27 04:19:04;;;;;;;;;;;;;;;;;;5075164;28;20255;-29
2023/09/27 04:21:30;;;;;;;;;;;;;;;;;;5074058;28;20311;-22
2023/09/27 04:23:56;;;;;;;;;;;;;;;;;;5074604;28;19909;-24
2023/09/27 04:26:23;;;;;;;;;;;;;;;;;;5075050;28;19934;-24
2023/09/27 04:28:49;;;;;;;;;;;;;;;;;;5074912;28;19908;-22
2023/09/27 04:31:15;;;;;;;;;;;;;;;;;;5074694;28;20331;-26
2023/09/27 04:33:44;;;;;;;;;;;;;;;;;;5074548;28;19919;-24
2023/09/27 04:36:15;;;;;;;;;;;;;;;;;;5074829;28;19913;-24
2023/09/27 04:38:41;;;;;;;;;;;;;;;;;;5074817;28;19908;-21
2023/09/27 04:41:08;;;;;;;;;;;;;;;;;;5074613;28;20304;-23
2023/09/27 04:43:34;;;;;;;;;;;;;;;;;;5074463;28;20357;-24
2023/09/27 04:46:00;;;;;;;;;;;;;;;;;;5074632;28;19919;-24
2023/09/27 04:48:26;;;;;;;;;;;;;;;;;;5074557;28;19919;-26
2023/09/27 04:50:52;;;;;;;;;;;;;;;;;;5074471;28;19955;-25
2023/09/27 04:53:18;;;;;;;;;;;;;;;;;;5074263;28;20372;-28
2023/09/27 04:55:44;;;;;;;;;;;;;;;;;;5074352;28;19916;-23
2023/09/27 04:58:10;;;;;;;;;;;;;;;;;;5074371;28;19908;-27
2023/09/27 05:00:36;;;;;;;;;;;;;;;;;;5073153;28;19965;-27
2023/09/27 05:03:02;;;;;;;;;;;;;;;;;;5074141;28;20255;-25
2023/09/27 05:05:28;;;;;;;;;;;;;;;;;;5074016;28;19916;-23
2023/09/27 05:07:54;;;;;;;;;;;;;;;;;;5074094;28;19940;-27
2023/09/27 05:10:20;;;;;;;;;;;;;;;;;;5073918;28;20347;-26
2023/09/27 05:12:47;;;;;;;;;;;;;;;;;;5074265;28;19973;-23
2023/09/27 05:15:13;;;;;;;;;;;;;;;;;;5072995;28;19913;-21
2023/09/27 05:17:39;;;;;;;;;;;;;;;;;;5074108;28;20260;-26
2023/09/27 05:20:08;;;;;;;;;;;;;;;;;;5074083;28;19912;-28
2023/09/27 05:22:35;;;;;;;;;;;;;;;;;;5073767;28;19912;-23
2023/09/27 05:25:01;;;;;;;;;;;;;;;;;;5073626;28;19913;-26
2023/09/27 05:27:27;;;;;;;;;;;;;;;;;;5074027;28;19913;-28
2023/09/27 05:29:53;;;;;;;;;;;;;;;;;;5073937;28;19908;-29
2023/09/27 05:32:19;;;;;;;;;;;;;;;;;;5074247;28;19908;-26
2023/09/27 05:34:45;;;;;;;;;;;;;;;;;;5077845;28;19908;-26
2023/09/27 05:37:11;;;;;;;;;;;;;;;;;;5077846;28;19931;-29
2023/09/27 05:39:37;;;;;;;;;;;;;;;;;;5077622;28;19913;-29
2023/09/27 05:42:03;;;;;;;;;;;;;;;;;;5077875;28;19920;-29
2023/09/27 05:44:29;;;;;;;;;;;;;;;;;;5077530;28;19909;-28
2023/09/27 05:46:55;;;;;;;;;;;;;;;;;;5077192;28;19955;-32
2023/09/27 05:49:21;;;;;;;;;;;;;;;;;;5076880;28;19908;-28
2023/09/27 05:51:47;;;;;;;;;;;;;;;;;;5077821;28;19909;-26
2023/09/27 05:54:13;;;;;;;;;;;;;;;;;;5077208;28;19912;-25
2023/09/27 05:56:39;;;;;;;;;;;;;;;;;;5077272;28;19908;-24
2023/09/27 05:59:08;;;;;;;;;;;;;;;;;;5077071;28;19948;-29
2023/09/27 06:01:34;;;;;;;;;;;;;;;;;;5077201;28;19919;-25
2023/09/27 06:04:00;;;;;;;;;;;;;;;;;;5076710;28;20356;-26
2023/09/27 06:06:26;;;;;;;;;;;;;;;;;;5076951;28;19916;-24
2023/09/27 06:08:52;;;;;;;;;;;;;;;;;;5077141;28;19919;-26
2023/09/27 06:11:18;;;;;;;;;;;;;;;;;;5076899;28;19952;-25
2023/09/27 06:13:44;;;;;;;;;;;;;;;;;;5076552;28;20228;-26
2023/09/27 06:16:10;;;;;;;;;;;;;;;;;;5076395;28;19908;-29
2023/09/27 06:18:36;;;;;;;;;;;;;;;;;;5076487;28;19908;-30
2023/09/27 06:21:04;;;;;;;;;;;;;;;;;;5076277;28;19991;-29
2023/09/27 06:23:30;;;;;;;;;;;;;;;;;;5076164;28;19919;-27
2023/09/27 06:25:56;;;;;;;;;;;;;;;;;;5076485;28;20002;-25
2023/09/27 06:28:22;;;;;;;;;;;;;;;;;;5076781;28;19908;-29
2023/09/27 06:30:48;;;;;;;;;;;;;;;;;;5075070;28;19912;-24
2023/09/27 06:33:14;;;;;;;;;;;;;;;;;;5075950;28;20243;-25
2023/09/27 06:35:42;;;;;;;;;;;;;;;;;;5076295;28;19909;-25
2023/09/27 06:38:08;;;;;;;;;;;;;;;;;;5076388;28;20001;-26
2023/09/27 06:40:35;;;;;;;;;;;;;;;;;;5076275;28;19909;-23
2023/09/27 06:43:01;;;;;;;;;;;;;;;;;;5076087;28;19909;-23
2023/09/27 06:45:28;;;;;;;;;;;;;;;;;;5075620;28;20457;-23
2023/09/27 06:47:54;;;;;;;;;;;;;;;;;;5076483;28;19912;-21
2023/09/27 06:50:21;;;;;;;;;;;;;;;;;;5076822;28;20384;-24
2023/09/27 06:52:47;;;;;;;;;;;;;;;;;;5076431;28;20263;-28
2023/09/27 06:55:16;;;;;;;;;;;;;;;;;;5076517;28;19908;-31
2023/09/27 06:57:42;;;;;;;;;;;;;;;;;;5075449;28;19966;-28
2023/09/27 07:00:24;;;;;;;;;;;;;;;;;;5076312;28;19908;-26
2023/09/27 07:02:50;;;;;;;;;;;;;;;;;;5076141;28;19912;-22
2023/09/27 07:05:16;;;;;;;;;;;;;;;;;;5075835;28;20347;-27
2023/09/27 07:07:42;;;;;;;;;;;;;;;;;;5075976;28;19908;-29
2023/09/27 07:10:08;;;;;;;;;;;;;;;;;;5076091;28;19909;-23
2023/09/27 07:12:34;;;;;;;;;;;;;;;;;;5074645;28;19944;-24
2023/09/27 07:15:00;;;;;;;;;;;;;;;;;;5076033;28;19987;-26
2023/09/27 07:17:26;;;;;;;;;;;;;;;;;;5076054;28;19909;-28
2023/09/27 07:19:53;;;;;;;;;;;;;;;;;;5075778;28;19924;-24
2023/09/27 07:22:19;;;;;;;;;;;;;;;;;;5075661;28;20275;-29
2023/09/27 07:24:45;;;;;;;;;;;;;;;;;;5075803;28;19912;-29
2023/09/27 07:27:11;;;;;;;;;;;;;;;;;;5075499;28;19908;-27
2023/09/27 07:29:37;;;;;;;;;;;;;;;;;;5075657;28;20383;-22
2023/09/27 07:32:04;;;;;;;;;;;;;;;;;;5074944;28;20263;-25
2023/09/27 07:34:30;;;;;;;;;;;;;;;;;;5075227;28;19913;-28
2023/09/27 07:36:56;;;;;;;;;;;;;;;;;;5074090;28;20029;-32
2023/09/27 07:39:23;;;;;;;;;;;;;;;;;;5075098;28;19944;-25
2023/09/27 07:41:49;;;;;;;;;;;;;;;;;;5074793;28;19918;-24
2023/09/27 07:44:15;;;;;;;;;;;;;;;;;;5075288;28;19912;-23
2023/09/27 07:46:41;;;;;;;;;;;;;;;;;;5075052;28;19915;-26
2023/09/27 07:49:08;;;;;;;;;;;;;;;;;;5075056;28;19908;-27
2023/09/27 07:51:34;;;;;;;;;;;;;;;;;;5075113;28;19969;-26
2023/09/27 07:54:00;;;;;;;;;;;;;;;;;;5075351;28;19916;-29
2023/09/27 07:56:26;;;;;;;;;;;;;;;;;;5074554;28;19908;-24
2023/09/27 07:58:53;;;;;;;;;;;;;;;;;;5075156;28;19916;-25
2023/09/27 08:01:20;;;;;;;;;;;;;;;;;;5075079;28;19917;-31
2023/09/27 08:03:46;;;;;;;;;;;;;;;;;;5074917;28;20224;-27
2023/09/27 08:06:12;;;;;;;;;;;;;;;;;;5074580;28;19916;-23
2023/09/27 08:08:39;;;;;;;;;;;;;;;;;;5074890;28;19920;-28
2023/09/27 08:11:05;;;;;;;;;;;;;;;;;;5073734;28;19912;-24
2023/09/27 08:13:31;;;;;;;;;;;;;;;;;;5074510;28;20207;-29
2023/09/27 08:15:57;;;;;;;;;;;;;;;;;;5073622;28;19908;-24
2023/09/27 08:18:25;;;;;;;;;;;;;;;;;;5074926;28;20366;-29
2023/09/27 08:20:53;;;;;;;;;;;;;;;;;;5074486;28;19919;-24
2023/09/27 08:23:19;;;;;;;;;;;;;;;;;;5074488;28;20251;-23
2023/09/27 08:25:45;;;;;;;;;;;;;;;;;;5074738;28;19919;-23
2023/09/27 08:28:11;;;;;;;;;;;;;;;;;;5074473;28;19974;-26
2023/09/27 08:30:37;;;;;;;;;;;;;;;;;;5074742;28;20263;-24
2023/09/27 08:33:03;;;;;;;;;;;;;;;;;;5074355;28;20255;-26
2023/09/27 08:35:29;;;;;;;;;;;;;;;;;;5074433;28;19908;-27
2023/09/27 08:37:56;;;;;;;;;;;;;;;;;;5074451;28;19919;-22
2023/09/27 08:40:22;;;;;;;;;;;;;;;;;;5074671;28;20233;-26
2023/09/27 08:42:50;;;;;;;;;;;;;;;;;;5074507;28;19962;-30
2023/09/27 08:45:16;;;;;;;;;;;;;;;;;;5074398;28;20006;-27
2023/09/27 08:47:42;;;;;;;;;;;;;;;;;;5073801;28;19963;-26
2023/09/27 08:50:08;;;;;;;;;;;;;;;;;;5073875;28;19908;-26
2023/09/27 08:52:34;;;;;;;;;;;;;;;;;;5073711;28;20001;-26
2023/09/27 08:55:00;;;;;;;;;;;;;;;;;;5073752;28;20301;-25
2023/09/27 08:57:26;;;;;;;;;;;;;;;;;;5073763;28;19909;-23
2023/09/27 08:59:52;;;;;;;;;;;;;;;;;;5073780;28;19908;-26
2023/09/27 09:02:18;;;;;;;;;;;;;;;;;;5073634;28;20358;-23
2023/09/27 09:04:44;;;;;;;;;;;;;;;;;;5073689;28;19917;-26
2023/09/27 09:07:11;;;;;;;;;;;;;;;;;;5073737;28;19909;-23
2023/09/27 09:09:39;;;;;;;;;;;;;;;;;;5077998;28;19914;-30
2023/09/27 09:12:09;;;;;;;;;;;;;;;;;;5076691;28;19947;-26
2023/09/27 09:14:35;;;;;;;;;;;;;;;;;;5077533;28;19920;-25
2023/09/27 09:17:01;;;;;;;;;;;;;;;;;;5077982;28;19931;-22
2023/09/27 09:19:27;;;;;;;;;;;;;;;;;;5076489;28;19923;-24
2023/09/27 09:21:53;;;;;;;;;;;;;;;;;;5077689;28;19974;-27
2023/09/27 09:24:22;;;;;;;;;;;;;;;;;;5077639;28;20266;-31
2023/09/27 09:26:49;;;;;;;;;;;;;;;;;;5078104;28;19995;-26
2023/09/27 09:29:18;;;;;;;;;;;;;;;;;;5077730;28;19970;-23
2023/09/27 09:31:43;;;;;;;;;;;;;;;;;;5077510;28;19909;-27
2023/09/27 09:34:10;;;;;;;;;;;;;;;;;;5077430;28;19913;-25
2023/09/27 09:36:39;;;;;;;;;;;;;;;;;;5076672;28;19908;-26
2023/09/27 09:39:05;;;;;;;;;;;;;;;;;;5077691;28;19909;-26
2023/09/27 09:41:31;;;;;;;;;;;;;;;;;;5077714;28;19908;-22
2023/09/27 09:43:57;;;;;;;;;;;;;;;;;;5077535;28;20292;-23
2023/09/27 09:46:23;;;;;;;;;;;;;;;;;;5077870;28;19915;-27
2023/09/27 09:48:49;;;;;;;;;;;;;;;;;;5077302;28;19931;-27
2023/09/27 09:51:15;;;;;;;;;;;;;;;;;;5077534;28;19909;-26
2023/09/27 09:53:41;;;;;;;;;;;;;;;;;;5077233;28;19913;-25
2023/09/27 09:56:07;;;;;;;;;;;;;;;;;;5077755;28;20272;-26
2023/09/27 09:58:35;;;;;;;;;;;;;;;;;;5077361;28;19993;-24
2023/09/27 10:01:01;;;;;;;;;;;;;;;;;;5077287;28;19915;-22
2023/09/27 10:03:28;;;;;;;;;;;;;;;;;;5077000;28;19912;-27
2023/09/27 10:05:54;;;;;;;;;;;;;;;;;;5076031;28;20091;-24
2023/09/27 10:08:20;;;;;;;;;;;;;;;;;;5077137;28;19908;-25
2023/09/27 10:10:47;;;;;;;;;;;;;;;;;;5077240;28;19919;-24
2023/09/27 10:13:13;;;;;;;;;;;;;;;;;;5076780;28;19924;-29
2023/09/27 10:15:39;;;;;;;;;;;;;;;;;;5076882;28;19909;-25
2023/09/27 10:18:05;;;;;;;;;;;;;;;;;;5076950;28;20039;-26
2023/09/27 10:20:30;;;;;;;;;;;;;;;;;;5075906;28;19936;-25
2023/09/27 10:22:56;;;;;;;;;;;;;;;;;;5075868;28;20046;-23
2023/09/27 10:25:22;;;;;;;;;;;;;;;;;;5076034;28;19909;-25
2023/09/27 10:27:48;;;;;;;;;;;;;;;;;;5076813;28;19915;-27
2023/09/27 10:30:14;;;;;;;;;;;;;;;;;;5076622;28;19912;-22
2023/09/27 10:32:40;;;;;;;;;;;;;;;;;;5076681;28;20339;-30
2023/09/27 10:35:06;;;;;;;;;;;;;;;;;;5076606;28;19908;-25
2023/09/27 10:37:32;;;;;;;;;;;;;;;;;;5076583;28;19909;-25
2023/09/27 10:39:58;;;;;;;;;;;;;;;;;;5076501;28;20001;-28
2023/09/27 10:42:24;;;;;;;;;;;;;;;;;;5075964;28;19986;-27
2023/09/27 10:44:51;;;;;;;;;;;;;;;;;;5076882;28;20313;-22
2023/09/27 10:47:18;;;;;;;;;;;;;;;;;;5076312;28;19915;-25
2023/09/27 10:49:44;;;;;;;;;;;;;;;;;;5076217;28;19966;-25
2023/09/27 10:52:10;;;;;;;;;;;;;;;;;;5075857;28;19912;-26
2023/09/27 10:54:36;;;;;;;;;;;;;;;;;;5076068;28;19912;-28
2023/09/27 10:57:02;;;;;;;;;;;;;;;;;;5076275;28;19909;-26
2023/09/27 10:59:28;;;;;;;;;;;;;;;;;;5075698;28;19966;-24
2023/09/27 11:01:54;;;;;;;;;;;;;;;;;;5075494;28;19916;-24
2023/09/27 11:04:20;;;;;;;;;;;;;;;;;;5075180;28;19942;-28
2023/09/27 11:06:46;;;;;;;;;;;;;;;;;;5075189;28;19916;-25
2023/09/27 11:09:20;;;;;;;;;;;;;;;;;;5075182;28;20014;-24
2023/09/27 11:11:47;;;;;;;;;;;;;;;;;;5075186;28;19908;-27
2023/09/27 11:14:13;;;;;;;;;;;;;;;;;;5075589;28;19946;-25
2023/09/27 11:16:39;;;;;;;;;;;;;;;;;;5075088;28;20343;-30
2023/09/27 11:19:06;;;;;;;;;;;;;;;;;;5075041;28;19923;-30
2023/09/27 11:21:32;;;;;;;;;;;;;;;;;;5075279;28;19909;-31
2023/09/27 11:23:58;;;;;;;;;;;;;;;;;;5075366;28;19908;-24
2023/09/27 11:26:24;;;;;;;;;;;;;;;;;;5075361;28;19932;-28
2023/09/27 11:28:50;;;;;;;;;;;;;;;;;;5075126;28;19908;-29
2023/09/27 11:31:16;;;;;;;;;;;;;;;;;;5075932;28;19908;-25
2023/09/27 11:33:44;;;;;;;;;;;;;;;;;;5074952;28;20202;-25
2023/09/27 11:36:10;;;;;;;;;;;;;;;;;;5075508;28;20379;-24
2023/09/27 11:38:36;;;;;;;;;;;;;;;;;;5075472;28;20233;-23
2023/09/27 11:41:02;;;;;;;;;;;;;;;;;;5075680;28;19908;-27
2023/09/27 11:43:28;;;;;;;;;;;;;;;;;;5074421;28;20033;-26
2023/09/27 11:45:54;;;;;;;;;;;;;;;;;;5075436;28;19919;-27
2023/09/27 11:48:20;;;;;;;;;;;;;;;;;;5074102;28;19919;-25
2023/09/27 11:50:46;;;;;;;;;;;;;;;;;;5075311;28;20252;-23
2023/09/27 11:53:12;;;;;;;;;;;;;;;;;;5075031;28;19961;-25
2023/09/27 11:55:38;;;;;;;;;;;;;;;;;;5075110;28;20323;-22
2023/09/27 11:58:04;;;;;;;;;;;;;;;;;;5075839;28;19948;-27
2023/09/27 12:00:30;;;;;;;;;;;;;;;;;;5075220;28;19909;-25
2023/09/27 12:02:56;;;;;;;;;;;;;;;;;;5075365;28;19934;-25
2023/09/27 12:05:22;;;;;;;;;;;;;;;;;;5074839;28;19981;-26
2023/09/27 12:07:48;;;;;;;;;;;;;;;;;;5075224;28;19909;-21
2023/09/27 12:10:14;;;;;;;;;;;;;;;;;;5075050;28;20476;-25
2023/09/27 12:12:40;;;;;;;;;;;;;;;;;;5074803;28;19957;-24
2023/09/27 12:15:07;;;;;;;;;;;;;;;;;;5074701;28;20063;-30
2023/09/27 12:17:33;;;;;;;;;;;;;;;;;;5074872;28;20271;-25
2023/09/27 12:19:59;;;;;;;;;;;;;;;;;;5074748;28;19908;-24
2023/09/27 12:22:25;;;;;;;;;;;;;;;;;;5074807;28;19938;-26
2023/09/27 12:24:50;;;;;;;;;;;;;;;;;;5074597;28;19916;-31
2023/09/27 12:27:16;;;;;;;;;;;;;;;;;;5074504;28;19908;-28
2023/09/27 12:29:42;;;;;;;;;;;;;;;;;;5074425;28;19958;-27
2023/09/27 12:32:08;;;;;;;;;;;;;;;;;;5074759;28;19908;-24
2023/09/27 12:34:34;;;;;;;;;;;;;;;;;;5074706;28;19921;-28
2023/09/27 12:37:00;;;;;;;;;;;;;;;;;;5074862;28;19915;-27
2023/09/27 12:39:26;;;;;;;;;;;;;;;;;;5073354;28;19909;-26
2023/09/27 12:41:52;;;;;;;;;;;;;;;;;;5073858;28;19908;-24
2023/09/27 12:44:18;;;;;;;;;;;;;;;;;;5074773;28;19909;-29
2023/09/27 12:46:44;;;;;;;;;;;;;;;;;;5074331;28;20350;-25
2023/09/27 12:49:10;;;;;;;;;;;;;;;;;;5074764;28;19912;-21
2023/09/27 12:51:37;;;;;;;;;;;;;;;;;;5073344;28;19999;-27
2023/09/27 12:54:04;;;;;;;;;;;;;;;;;;5074279;28;20306;-27
2023/09/27 12:56:30;;;;;;;;;;;;;;;;;;5073201;28;19909;-23
2023/09/27 12:58:56;;;;;;;;;;;;;;;;;;5074316;28;19912;-23
2023/09/27 13:01:22;;;;;;;;;;;;;;;;;;5074540;28;19909;-29
2023/09/27 13:03:48;;;;;;;;;;;;;;;;;;5074346;28;19920;-26
2023/09/27 13:06:14;;;;;;;;;;;;;;;;;;5074214;28;19931;-22
2023/09/27 13:08:40;;;;;;;;;;;;;;;;;;5074503;28;20263;-29
2023/09/27 13:11:06;;;;;;;;;;;;;;;;;;5074600;28;19981;-24
2023/09/27 13:13:32;;;;;;;;;;;;;;;;;;5074037;28;19916;-30
2023/09/27 13:15:58;;;;;;;;;;;;;;;;;;5074678;28;19909;-24
2023/09/27 13:18:24;;;;;;;;;;;;;;;;;;5074393;28;19909;-23
2023/09/27 13:20:50;;;;;;;;;;;;;;;;;;5074437;28;19974;-23
2023/09/27 13:23:16;;;;;;;;;;;;;;;;;;5074523;28;19942;-25
2023/09/27 13:25:41;;;;;;;;;;;;;;;;;;5073284;28;20007;-23
2023/09/27 13:28:07;;;;;;;;;;;;;;;;;;5074095;28;19942;-29
2023/09/27 13:30:33;;;;;;;;;;;;;;;;;;5072936;28;20384;-24
2023/09/27 13:32:59;;;;;;;;;;;;;;;;;;5074297;28;19923;-24
2023/09/27 13:35:25;;;;;;;;;;;;;;;;;;5074097;28;19912;-27
2023/09/27 13:37:51;;;;;;;;;;;;;;;;;;5074115;28;20258;-25
2023/09/27 13:40:17;;;;;;;;;;;;;;;;;;5073910;28;19909;-24
2023/09/27 13:42:43;;;;;;;;;;;;;;;;;;5073813;28;19999;-21
2023/09/27 13:45:09;;;;;;;;;;;;;;;;;;5073898;28;19939;-21
2023/09/27 13:47:35;;;;;;;;;;;;;;;;;;5074009;28;19912;-27
2023/09/27 13:50:01;;;;;;;;;;;;;;;;;;5074059;28;19935;-28
2023/09/27 13:52:27;;;;;;;;;;;;;;;;;;5074241;28;19912;-26
2023/09/27 13:54:53;;;;;;;;;;;;;;;;;;5076560;28;20221;-29
2023/09/27 13:57:19;;;;;;;;;;;;;;;;;;5077547;28;20297;-31
2023/09/27 13:59:45;;;;;;;;;;;;;;;;;;5077513;28;19923;-28
2023/09/27 14:02:14;;;;;;;;;;;;;;;;;;5076313;28;20358;-25
2023/09/27 14:04:40;;;;;;;;;;;;;;;;;;5077431;28;20250;-25
2023/09/27 14:07:06;;;;;;;;;;;;;;;;;;5077612;28;19913;-26
2023/09/27 14:09:32;;;;;;;;;;;;;;;;;;5077243;28;20336;-25
2023/09/27 14:11:58;;;;;;;;;;;;;;;;;;5076916;28;19909;-26
2023/09/27 14:14:24;;;;;;;;;;;;;;;;;;5076895;28;20015;-25
2023/09/27 14:16:50;;;;;;;;;;;;;;;;;;5077062;28;19908;-30
2023/09/27 14:19:16;;;;;;;;;;;;;;;;;;5077084;28;19909;-23
2023/09/27 14:21:43;;;;;;;;;;;;;;;;;;5076860;28;19916;-26
2023/09/27 14:24:09;;;;;;;;;;;;;;;;;;5076886;28;19908;-29
2023/09/27 14:26:36;;;;;;;;;;;;;;;;;;5076984;28;20033;-26
2023/09/27 14:29:03;;;;;;;;;;;;;;;;;;5076566;28;19947;-23
2023/09/27 14:31:29;;;;;;;;;;;;;;;;;;5076969;28;19908;-25
2023/09/27 14:33:55;;;;;;;;;;;;;;;;;;5076459;28;20007;-24
2023/09/27 14:36:22;;;;;;;;;;;;;;;;;;5076730;28;19908;-26
2023/09/27 14:38:48;;;;;;;;;;;;;;;;;;5077006;28;19909;-27
2023/09/27 14:41:14;;;;;;;;;;;;;;;;;;5076591;28;20269;-24
2023/09/27 14:43:40;;;;;;;;;;;;;;;;;;5076486;28;20339;-23
2023/09/27 14:46:06;;;;;;;;;;;;;;;;;;5076433;28;20312;-22
2023/09/27 14:48:32;;;;;;;;;;;;;;;;;;5076718;28;19974;-29
2023/09/27 14:50:58;;;;;;;;;;;;;;;;;;5076611;28;19909;-24
2023/09/27 14:53:24;;;;;;;;;;;;;;;;;;5076296;28;20309;-26
2023/09/27 14:55:50;;;;;;;;;;;;;;;;;;5076319;28;20251;-28
2023/09/27 14:58:16;;;;;;;;;;;;;;;;;;5076133;28;19908;-33
2023/09/27 15:00:41;;;;;;;;;;;;;;;;;;5077040;28;19916;-29
2023/09/27 15:03:07;;;;;;;;;;;;;;;;;;5075954;28;19908;-27
2023/09/27 15:05:34;;;;;;;;;;;;;;;;;;5075456;28;19935;-25
2023/09/27 15:08:00;;;;;;;;;;;;;;;;;;5074780;28;19908;-25
2023/09/27 15:10:26;;;;;;;;;;;;;;;;;;5075761;28;20011;-33
2023/09/27 15:12:51;;;;;;;;;;;;;;;;;;5076002;28;19909;-25
2023/09/27 15:15:17;;;;;;;;;;;;;;;;;;5075489;28;19909;-25
2023/09/27 15:17:43;;;;;;;;;;;;;;;;;;5075351;28;19908;-26
2023/09/27 15:20:10;;;;;;;;;;;;;;;;;;5075617;28;19919;-25
2023/09/27 15:22:38;;;;;;;;;;;;;;;;;;5074155;28;19909;-27
2023/09/27 15:25:05;;;;;;;;;;;;;;;;;;5074518;28;19962;-28
2023/09/27 15:27:31;;;;;;;;;;;;;;;;;;5074234;28;19908;-31
2023/09/27 15:29:57;;;;;;;;;;;;;;;;;;5074119;28;19915;-28
2023/09/27 15:32:23;;;;;;;;;;;;;;;;;;5075260;28;19908;-30
2023/09/27 15:34:49;;;;;;;;;;;;;;;;;;5074911;28;19977;-27
2023/09/27 15:37:15;;;;;;;;;;;;;;;;;;5075265;28;19920;-22
2023/09/27 15:39:41;;;;;;;;;;;;;;;;;;5075490;28;19912;-24
2023/09/27 15:42:07;;;;;;;;;;;;;;;;;;5075661;28;19966;-24
2023/09/27 15:44:33;;;;;;;;;;;;;;;;;;5075485;28;19909;-25
2023/09/27 15:47:00;;;;;;;;;;;;;;;;;;5074531;28;20393;-26
2023/09/27 15:49:25;;;;;;;;;;;;;;;;;;5075675;28;19931;-28
2023/09/27 15:51:51;;;;;;;;;;;;;;;;;;5075138;28;19909;-26
2023/09/27 15:54:17;;;;;;;;;;;;;;;;;;5075123;28;20012;-26
2023/09/27 15:56:43;;;;;;;;;;;;;;;;;;5075208;28;19908;-24
2023/09/27 15:59:10;;;;;;;;;;;;;;;;;;5075053;28;19962;-25
2023/09/27 16:01:36;;;;;;;;;;;;;;;;;;5075043;28;20248;-25
2023/09/27 16:04:04;;;;;;;;;;;;;;;;;;5074817;28;19912;-26
2023/09/27 16:06:30;;;;;;;;;;;;;;;;;;5074714;28;20383;-26
2023/09/27 16:08:56;;;;;;;;;;;;;;;;;;5074743;28;19936;-21
2023/09/27 16:11:22;;;;;;;;;;;;;;;;;;5074752;28;19951;-26
2023/09/27 16:13:47;;;;;;;;;;;;;;;;;;5074721;28;20041;-26
2023/09/27 16:16:13;;;;;;;;;;;;;;;;;;5074570;28;19919;-26
2023/09/27 16:18:39;;;;;;;;;;;;;;;;;;5073715;28;19944;-27
2023/09/27 16:21:05;;;;;;;;;;;;;;;;;;5074658;28;19970;-26
2023/09/27 16:23:31;;;;;;;;;;;;;;;;;;5074677;28;19915;-26
2023/09/27 16:25:57;;;;;;;;;;;;;;;;;;5073608;28;19909;-23
2023/09/27 16:28:23;;;;;;;;;;;;;;;;;;5074612;28;19908;-26
2023/09/27 16:30:49;;;;;;;;;;;;;;;;;;5074428;28;20312;-24
2023/09/27 16:33:15;;;;;;;;;;;;;;;;;;5074635;28;19924;-21
2023/09/27 16:35:41;;;;;;;;;;;;;;;;;;5074332;28;20434;-23
2023/09/27 16:38:09;;;;;;;;;;;;;;;;;;5074325;28;20251;-23